Thiells, New York
Current Conditions -  °F | °C
As of 4:56 PM on Monday 26 Jan 2015 (Local Time) from KHPN Reporting Station
Light Snow Light Snow  
Wind Chill: 11°   Ceiling: 1000
Heat Index: 23°   Visibility: 1mi
Dew Point: 19°   Wind: 13mph
Humidity: 85%   Direction: 40°NE
Pressure: 29.83"   Gusts: 23mph
Location:  41.2°N, 74.03°W
Report Text: KHPN 262156Z 04011G20KT 1SM R16/P6000FT -SN BR BKN010 M05/M07 A2983 RMK AO2 SLP112 P0001 T10501072
Loading
Personal Weather Stations






























Interactive Weather Map New forecast layout! Learn more

10-Day Weather Forecast

Advertisements
Track Severe Weather on mobile